Mccrews — WDF6271 — position and weather

sailwx.info

Track history (hours):
 
Tides and Currents Weather Stations Pressure Air Temp Water Temp Dewpoint Dewpoint Depression Visibility Wind Speed Wind Dir Waves Ship Positions

Mccrews

Owner: McAllister Towing & Transportation Company Inc., Staten Island, NY. More information available from US FCC via Universal Licensing System and Coast Guard Vessel Documentation Center.

Last reported at 2017-Sep-19 15:18 UTC. Time now 2017-Sep-19 20:24 UTC.
Position N 39°53' W 075°11'.

Length 13 m; draft 2 m.

Type: Pilot. MMSI: 367472490.

Date/timePositionNaut miles runAvg speedWind from/ knotsBaromVisibWave heightAir tempDewpointWater temp
2017-Sep-19 15:18N 39°53' W 075°11'2 6.4
2017-Sep-19 15:00N 39°52' W 075°13'2 3.7
2017-Sep-19 14:31N 39°53' W 075°11'0 0.0
2017-Sep-18 23:58N 39°53' W 075°11'0 0.0
2017-Sep-18 21:47N 39°53' W 075°11'2 2.1
2017-Sep-18 21:00N 39°52' W 075°13'2 0.8
2017-Sep-18 18:55N 39°53' W 075°11'0 0.1
2017-Sep-18 18:30N 39°53' W 075°11'0 0.0
2017-Sep-18 08:29N 39°53' W 075°11'2 4.1
2017-Sep-18 08:01N 39°52' W 075°13'2 1.0
2017-Sep-18 06:06N 39°53' W 075°11'0 0.0
2017-Sep-18 06:00N 39°53' W 075°11'0 0.0
2017-Sep-18 03:24N 39°53' W 075°11'2 6.3
2017-Sep-18 03:00N 39°52' W 075°13'0 0.0
2017-Sep-18 02:30N 39°52' W 075°13'  
2017-Sep-15 13:12N 39°53' W 075°11'1 7.1
2017-Sep-15 13:00N 39°53' W 075°09'1 0.1
2017-Sep-14 18:57N 39°53' W 075°11'0 0.0
2017-Sep-14 18:15N 39°53' W 075°11'0 1.7
2017-Sep-14 18:01N 39°53' W 075°11'0 0.1
2017-Sep-14 15:13N 39°53' W 075°11'1 2.5
2017-Sep-14 15:01N 39°53' W 075°12'1 0.0
2017-Sep-13 20:29N 39°53' W 075°11'0 0.7
2017-Sep-13 20:00N 39°53' W 075°11'4 9.0
2017-Sep-13 19:31N 39°57' W 075°08'0 0.6
2017-Sep-13 19:00N 39°57' W 075°08'0 0.0
2017-Sep-13 18:30N 39°57' W 075°08'0 0.1
2017-Sep-13 18:01N 39°57' W 075°08'0 0.3
2017-Sep-13 17:31N 39°57' W 075°08'3 5.4
2017-Sep-13 17:00N 39°54' W 075°08'2 2.3
2017-Sep-13 15:59N 39°53' W 075°11'2 3.5
2017-Sep-13 15:31N 39°52' W 075°13'2 0.1
2017-Sep-12 18:09N 39°53' W 075°11'0 0.4
2017-Sep-12 18:00N 39°53' W 075°11'0 0.1
2017-Sep-12 17:30N 39°53' W 075°11'0 0.0
2017-Sep-11 18:45N 39°53' W 075°11'1 5.7
2017-Sep-11 18:30N 39°52' W 075°12'1 2.8
2017-Sep-11 18:00N 39°53' W 075°11'0 0.0
2017-Sep-11 17:26N 39°53' W 075°11'0 0.1
2017-Sep-11 17:01N 39°53' W 075°11'0 0.0
2017-Sep-11 16:15N 39°53' W 075°11'1 6.0
2017-Sep-11 16:01N 39°52' W 075°12'1 1.4
2017-Sep-11 15:01N 39°53' W 075°11'0 0.0
2017-Sep-11 15:01N 39°53' W 075°11'0 0.6
2017-Sep-11 14:30N 39°53' W 075°11'2 3.8
2017-Sep-11 14:00N 39°53' W 075°08'2 4.3
2017-Sep-11 13:30N 39°56' W 075°08'0 0.4
2017-Sep-11 13:00N 39°56' W 075°08'3 6.6
2017-Sep-11 12:30N 39°53' W 075°10'1 0.0
2017-Sep-09 15:21N 39°53' W 075°11'  
Track history (hours):
 
Tides and Currents Weather Stations Pressure Air Temp Water Temp Dewpoint Dewpoint Depression Visibility Wind Speed Wind Dir Waves Ship Positions

Mccrews

Owner: McAllister Towing & Transportation Company Inc., Staten Island, NY. More information available from US FCC via Universal Licensing System and Coast Guard Vessel Documentation Center.

Last reported at 2017-Sep-19 15:18 UTC. Time now 2017-Sep-19 20:24 UTC.
Position N 39°53' W 075°11'.

Length 13 m; draft 2 m.

Type: Pilot. MMSI: 367472490.

Date/timePositionNaut miles runAvg speedWind from/ knotsBaromVisibWave heightAir tempDewpointWater temp
2017-Sep-19 15:18N 39°53' W 075°11'2 6.4
2017-Sep-19 15:00N 39°52' W 075°13'2 3.7
2017-Sep-19 14:31N 39°53' W 075°11'0 0.0
2017-Sep-18 23:58N 39°53' W 075°11'0 0.0
2017-Sep-18 21:47N 39°53' W 075°11'2 2.1
2017-Sep-18 21:00N 39°52' W 075°13'2 0.8
2017-Sep-18 18:55N 39°53' W 075°11'0 0.1
2017-Sep-18 18:30N 39°53' W 075°11'0 0.0
2017-Sep-18 08:29N 39°53' W 075°11'2 4.1
2017-Sep-18 08:01N 39°52' W 075°13'2 1.0
2017-Sep-18 06:06N 39°53' W 075°11'0 0.0
2017-Sep-18 06:00N 39°53' W 075°11'0 0.0
2017-Sep-18 03:24N 39°53' W 075°11'2 6.3
2017-Sep-18 03:00N 39°52' W 075°13'0 0.0
2017-Sep-18 02:30N 39°52' W 075°13'  
2017-Sep-15 13:12N 39°53' W 075°11'1 7.1
2017-Sep-15 13:00N 39°53' W 075°09'1 0.1
2017-Sep-14 18:57N 39°53' W 075°11'0 0.0
2017-Sep-14 18:15N 39°53' W 075°11'0 1.7
2017-Sep-14 18:01N 39°53' W 075°11'0 0.1
2017-Sep-14 15:13N 39°53' W 075°11'1 2.5
2017-Sep-14 15:01N 39°53' W 075°12'1 0.0
2017-Sep-13 20:29N 39°53' W 075°11'0 0.7
2017-Sep-13 20:00N 39°53' W 075°11'4 9.0
2017-Sep-13 19:31N 39°57' W 075°08'0 0.6
2017-Sep-13 19:00N 39°57' W 075°08'0 0.0
2017-Sep-13 18:30N 39°57' W 075°08'0 0.1
2017-Sep-13 18:01N 39°57' W 075°08'0 0.3
2017-Sep-13 17:31N 39°57' W 075°08'3 5.4
2017-Sep-13 17:00N 39°54' W 075°08'2 2.3
2017-Sep-13 15:59N 39°53' W 075°11'2 3.5
2017-Sep-13 15:31N 39°52' W 075°13'2 0.1
2017-Sep-12 18:09N 39°53' W 075°11'0 0.4
2017-Sep-12 18:00N 39°53' W 075°11'0 0.1
2017-Sep-12 17:30N 39°53' W 075°11'0 0.0
2017-Sep-11 18:45N 39°53' W 075°11'1 5.7
2017-Sep-11 18:30N 39°52' W 075°12'1 2.8
2017-Sep-11 18:00N 39°53' W 075°11'0 0.0
2017-Sep-11 17:26N 39°53' W 075°11'0 0.1
2017-Sep-11 17:01N 39°53' W 075°11'0 0.0
2017-Sep-11 16:15N 39°53' W 075°11'1 6.0
2017-Sep-11 16:01N 39°52' W 075°12'1 1.4
2017-Sep-11 15:01N 39°53' W 075°11'0 0.0
2017-Sep-11 15:01N 39°53' W 075°11'0 0.6
2017-Sep-11 14:30N 39°53' W 075°11'2 3.8
2017-Sep-11 14:00N 39°53' W 075°08'2 4.3
2017-Sep-11 13:30N 39°56' W 075°08'0 0.4
2017-Sep-11 13:00N 39°56' W 075°08'3 6.6
2017-Sep-11 12:30N 39°53' W 075°10'1 0.0
2017-Sep-09 15:21N 39°53' W 075°11'  

Dump ship's entire track history